createdAt,value
2018-07-22T00:01:18.712Z,96.20
2018-07-22T00:03:47.279Z,95.80
2018-07-22T00:06:15.908Z,95.90
2018-07-22T00:08:44.465Z,96.00
2018-07-22T00:11:13.097Z,96.20
2018-07-22T00:13:41.626Z,96.10
2018-07-22T00:16:10.254Z,96.00
2018-07-22T00:18:38.896Z,96.80
2018-07-22T00:21:07.459Z,97.70
2018-07-22T00:23:36.140Z,97.70
2018-07-22T00:26:04.703Z,97.80
2018-07-22T00:28:33.268Z,97.70
2018-07-22T00:31:01.828Z,97.50
2018-07-22T00:33:30.436Z,98.00
2018-07-22T00:35:58.962Z,97.80
2018-07-22T00:38:27.533Z,97.80
2018-07-22T00:40:56.075Z,97.90
2018-07-22T00:43:24.579Z,97.90
2018-07-22T00:45:53.134Z,97.40
2018-07-22T00:48:21.621Z,96.60
2018-07-22T00:50:50.131Z,96.70
2018-07-22T00:53:18.656Z,96.80
2018-07-22T00:55:47.197Z,97.00
2018-07-22T00:58:15.744Z,96.90
2018-07-22T01:00:44.420Z,97.00
2018-07-22T01:03:12.951Z,97.10
2018-07-22T01:05:41.524Z,96.60
2018-07-22T01:08:10.036Z,96.30
2018-07-22T01:10:38.607Z,96.20
2018-07-22T01:13:07.349Z,96.00
2018-07-22T01:15:36.335Z,96.50
2018-07-22T01:18:04.950Z,96.00
2018-07-22T01:20:33.544Z,95.90
2018-07-22T01:23:02.104Z,95.60
2018-07-22T01:25:30.726Z,95.80
2018-07-22T01:27:59.331Z,96.50
2018-07-22T01:30:27.987Z,96.10
2018-07-22T01:35:24.812Z,95.90
2018-07-22T01:37:53.343Z,95.80
2018-07-22T01:40:21.932Z,95.60
2018-07-22T01:42:50.425Z,96.30
2018-07-22T01:45:19.036Z,96.50
2018-07-22T01:47:47.545Z,96.40
2018-07-22T01:50:16.152Z,96.70
2018-07-22T01:52:44.727Z,96.60
2018-07-22T01:55:13.320Z,96.60
2018-07-22T01:57:41.877Z,96.30
2018-07-22T02:00:10.396Z,96.50
2018-07-22T02:02:38.992Z,96.90
2018-07-22T02:05:07.571Z,96.80
2018-07-22T02:07:36.223Z,97.10
2018-07-22T02:10:04.936Z,97.70
2018-07-22T02:12:33.672Z,97.70
2018-07-22T02:15:02.628Z,97.80
2018-07-22T02:17:31.580Z,97.70
2018-07-22T02:20:00.103Z,97.60
2018-07-22T02:22:28.665Z,97.50
2018-07-22T02:24:57.260Z,97.50
2018-07-22T02:27:25.847Z,97.80
2018-07-22T02:29:54.397Z,97.70
2018-07-22T02:34:51.160Z,98.50
2018-07-22T02:37:19.769Z,98.30
2018-07-22T02:39:48.338Z,98.30
2018-07-22T02:44:45.402Z,98.70
2018-07-22T02:47:14.001Z,98.70
2018-07-22T02:49:42.781Z,99.10
2018-07-22T02:52:11.349Z,98.70
2018-07-22T02:54:40.160Z,99.00
2018-07-22T02:57:10.021Z,99.00
2018-07-22T02:59:38.544Z,99.20
2018-07-22T03:02:07.299Z,98.90
2018-07-22T03:04:36.869Z,98.90
2018-07-22T03:07:05.507Z,98.90
2018-07-22T03:09:34.126Z,98.70
2018-07-22T03:12:02.753Z,98.50
2018-07-22T03:16:59.520Z,99.10
2018-07-22T03:19:28.084Z,99.80
2018-07-22T03:21:57.051Z,98.70
2018-07-22T03:24:25.570Z,98.40
2018-07-22T03:26:54.815Z,98.80
2018-07-22T03:29:23.395Z,98.70
2018-07-22T03:31:52.040Z,98.40
2018-07-22T03:34:20.608Z,98.60
2018-07-22T03:36:49.534Z,98.70
2018-07-22T03:39:18.161Z,98.80
2018-07-22T03:41:46.855Z,99.20
2018-07-22T03:44:15.392Z,98.80
2018-07-22T03:46:43.977Z,98.20
2018-07-22T03:49:12.831Z,98.20
2018-07-22T03:51:41.440Z,98.60
2018-07-22T03:54:10.025Z,98.30
2018-07-22T03:56:39.228Z,98.30
2018-07-22T03:59:07.773Z,98.10
2018-07-22T04:01:36.362Z,98.10
2018-07-22T04:04:05.002Z,97.80
2018-07-22T04:06:33.764Z,98.00
2018-07-22T04:09:03.177Z,97.50
2018-07-22T04:11:31.761Z,97.50
2018-07-22T04:14:00.336Z,98.10
2018-07-22T04:16:29.251Z,98.30
2018-07-22T04:18:57.791Z,98.10
2018-07-22T04:21:26.805Z,97.50
2018-07-22T04:23:55.324Z,97.30
2018-07-22T04:26:23.883Z,97.10
2018-07-22T04:28:52.521Z,97.10
2018-07-22T04:31:21.247Z,96.90
2018-07-22T04:33:49.953Z,97.00
2018-07-22T04:36:18.508Z,96.60
2018-07-22T04:38:47.127Z,95.90
2018-07-22T04:41:15.681Z,96.60
2018-07-22T04:43:44.260Z,96.50
2018-07-22T04:46:12.939Z,96.30
2018-07-22T04:48:41.518Z,95.80
2018-07-22T04:51:10.166Z,96.00
2018-07-22T04:53:38.844Z,95.70
2018-07-22T04:56:07.316Z,95.90
2018-07-22T04:58:35.845Z,95.90
2018-07-22T05:01:04.489Z,95.50
2018-07-22T05:03:33.008Z,94.80
2018-07-22T05:06:01.599Z,94.80
2018-07-22T05:08:30.167Z,94.90
2018-07-22T05:10:58.766Z,94.60
2018-07-22T05:13:27.272Z,93.90
2018-07-22T05:15:55.824Z,94.50
2018-07-22T05:20:52.536Z,93.70
2018-07-22T05:23:21.053Z,93.70
2018-07-22T05:25:49.596Z,93.00
2018-07-22T05:28:18.171Z,93.80
2018-07-22T05:30:46.687Z,93.30
2018-07-22T05:33:15.219Z,93.20
2018-07-22T05:35:43.774Z,94.30
2018-07-22T05:38:12.288Z,93.90
2018-07-22T05:40:40.862Z,93.40
2018-07-22T05:43:09.384Z,94.40
2018-07-22T05:45:37.996Z,94.50
2018-07-22T05:48:06.541Z,94.60
2018-07-22T05:50:35.148Z,94.80
2018-07-22T05:53:03.681Z,94.20
2018-07-22T05:55:32.268Z,94.80
2018-07-22T05:58:00.769Z,92.80
2018-07-22T06:00:29.353Z,92.90
2018-07-22T06:02:57.849Z,93.10
2018-07-22T06:05:26.416Z,93.60
2018-07-22T06:07:54.925Z,91.80
2018-07-22T06:10:23.519Z,88.80
2018-07-22T06:12:52.272Z,90.50
2018-07-22T06:15:20.844Z,89.20
2018-07-22T06:17:49.384Z,85.90
2018-07-22T06:20:18.035Z,81.20
2018-07-22T06:22:46.581Z,74.70
2018-07-22T06:25:15.184Z,74.30
2018-07-22T06:27:43.751Z,72.60
2018-07-22T06:30:12.469Z,68.50
2018-07-22T06:32:41.024Z,67.60
2018-07-22T06:35:09.597Z,68.70
2018-07-22T06:37:38.103Z,69.00
2018-07-22T06:40:06.700Z,67.00
2018-07-22T06:42:35.261Z,69.80
2018-07-22T06:45:03.908Z,69.60
2018-07-22T06:47:32.439Z,69.00
2018-07-22T06:50:00.988Z,66.40
2018-07-22T06:52:29.487Z,66.40
2018-07-22T06:54:58.037Z,66.80
2018-07-22T06:57:26.597Z,70.20
2018-07-22T07:02:23.334Z,70.70
2018-07-22T07:04:51.992Z,70.80
2018-07-22T07:07:20.508Z,71.40
2018-07-22T07:09:49.081Z,69.30
2018-07-22T07:12:17.617Z,72.90
2018-07-22T07:14:46.159Z,71.80
2018-07-22T07:17:14.666Z,71.50
2018-07-22T07:19:43.169Z,69.60
2018-07-22T07:22:11.677Z,70.00
2018-07-22T07:24:40.184Z,68.50
2018-07-22T07:27:08.810Z,69.00
2018-07-22T07:29:37.400Z,66.40
2018-07-22T07:32:06.457Z,69.30
2018-07-22T07:34:35.000Z,67.00
2018-07-22T07:37:03.569Z,66.40
2018-07-22T07:39:32.060Z,65.10
2018-07-22T07:42:00.564Z,64.40
2018-07-22T07:44:29.043Z,62.20
2018-07-22T07:46:57.580Z,59.80
2018-07-22T07:49:26.086Z,57.50
2018-07-22T07:51:54.744Z,58.00
2018-07-22T07:54:23.293Z,57.30
2018-07-22T07:56:51.788Z,55.00
2018-07-22T07:59:20.395Z,51.60
2018-07-22T08:01:48.896Z,49.70
2018-07-22T08:04:17.548Z,48.10
2018-07-22T08:09:14.370Z,51.40
2018-07-22T08:11:42.922Z,51.90
2018-07-22T08:14:11.398Z,53.00
2018-07-22T08:16:39.990Z,53.10
2018-07-22T08:19:08.516Z,55.80
2018-07-22T08:21:37.177Z,56.00
2018-07-22T08:24:06.019Z,57.40
2018-07-22T08:26:34.589Z,58.50
2018-07-22T08:29:25.962Z,58.20
2018-07-22T08:34:22.879Z,59.00
2018-07-22T08:36:51.540Z,59.70
2018-07-22T08:39:22.412Z,58.90
2018-07-22T08:41:51.660Z,59.70
2018-07-22T08:44:20.281Z,60.00
2018-07-22T08:46:48.876Z,61.10
2018-07-22T08:49:17.515Z,60.90
2018-07-22T08:51:46.050Z,61.40
2018-07-22T08:54:14.841Z,64.40
2018-07-22T08:56:43.415Z,63.10
2018-07-22T08:59:12.062Z,65.10
2018-07-22T09:01:40.634Z,65.70
2018-07-22T09:04:09.224Z,65.90
2018-07-22T09:06:37.832Z,66.70
2018-07-22T09:09:08.365Z,66.80
2018-07-22T09:11:37.082Z,67.60
2018-07-22T09:14:06.064Z,68.40
2018-07-22T09:16:34.547Z,66.20
2018-07-22T09:19:03.102Z,67.50
2018-07-22T09:21:31.720Z,65.20
2018-07-22T09:24:00.295Z,65.40
2018-07-22T09:26:28.906Z,64.30
2018-07-22T09:28:57.432Z,63.80
2018-07-22T09:31:25.990Z,63.00
2018-07-22T09:33:54.535Z,61.80
2018-07-22T09:36:23.157Z,58.80
2018-07-22T09:38:51.740Z,59.10
2018-07-22T09:41:20.325Z,57.60
2018-07-22T09:43:49.018Z,57.00
2018-07-22T09:46:17.507Z,54.40
2018-07-22T09:48:46.108Z,55.40
2018-07-22T09:51:14.675Z,55.00
2018-07-22T09:53:43.333Z,53.70
2018-07-22T09:56:11.900Z,53.50
2018-07-22T09:58:40.506Z,53.10
2018-07-22T10:01:09.128Z,50.40
2018-07-22T10:03:37.981Z,50.50
2018-07-22T10:06:06.660Z,49.50
2018-07-22T10:08:35.642Z,50.80
2018-07-22T10:11:04.353Z,50.90
2018-07-22T10:13:32.827Z,49.80
2018-07-22T10:16:01.617Z,51.60
2018-07-22T10:18:31.053Z,49.80
2018-07-22T10:20:59.997Z,49.90
2018-07-22T10:23:28.653Z,47.40
2018-07-22T10:25:57.192Z,46.30
2018-07-22T10:28:25.732Z,45.20
2018-07-22T10:30:54.307Z,44.00
2018-07-22T10:33:22.896Z,43.60
2018-07-22T10:35:51.468Z,43.60
2018-07-22T10:38:19.951Z,43.90
2018-07-22T10:40:48.575Z,43.30
2018-07-22T10:43:17.101Z,42.90
2018-07-22T10:45:45.595Z,42.70
2018-07-22T10:48:14.268Z,42.60
2018-07-22T10:50:42.800Z,43.50
2018-07-22T10:53:11.393Z,38.90
2018-07-22T10:55:39.939Z,41.40
2018-07-22T10:58:08.463Z,40.00
2018-07-22T11:00:37.061Z,40.30
2018-07-22T11:03:06.943Z,43.00
2018-07-22T11:05:35.508Z,40.90
2018-07-22T11:08:04.077Z,41.80
2018-07-22T11:10:32.635Z,41.90
2018-07-22T11:13:01.194Z,41.40
2018-07-22T11:15:29.820Z,40.90
2018-07-22T11:17:58.383Z,39.30
2018-07-22T11:20:26.962Z,39.40
2018-07-22T11:22:55.544Z,38.90
2018-07-22T11:25:24.133Z,38.60
2018-07-22T11:27:52.735Z,37.10
2018-07-22T11:30:21.298Z,36.30
2018-07-22T11:32:49.855Z,36.00
2018-07-22T11:35:18.403Z,35.50
2018-07-22T11:37:47.732Z,36.40
2018-07-22T11:40:16.377Z,37.70
2018-07-22T11:42:44.903Z,38.40
2018-07-22T11:45:13.475Z,37.40
2018-07-22T11:47:42.027Z,37.90
2018-07-22T11:50:10.554Z,39.70
2018-07-22T11:52:39.127Z,40.50
2018-07-22T11:55:07.709Z,41.50
2018-07-22T11:57:36.336Z,42.40
2018-07-22T12:00:05.691Z,42.50
2018-07-22T12:02:34.214Z,41.30
2018-07-22T12:05:02.799Z,41.40
2018-07-22T12:07:31.416Z,41.00
2018-07-22T12:09:59.917Z,39.70
2018-07-22T12:12:28.523Z,39.50
2018-07-22T12:14:57.120Z,40.10
2018-07-22T12:17:25.654Z,41.90
2018-07-22T12:19:54.239Z,41.60
2018-07-22T12:22:22.794Z,42.30
2018-07-22T12:24:51.359Z,42.00
2018-07-22T12:27:19.881Z,41.30
2018-07-22T12:29:48.429Z,43.40
2018-07-22T12:32:16.959Z,44.00
2018-07-22T12:34:45.472Z,44.00
2018-07-22T12:37:14.048Z,43.00
2018-07-22T12:39:42.663Z,44.20
2018-07-22T12:42:11.536Z,43.40
2018-07-22T12:44:40.109Z,43.60
2018-07-22T12:47:08.751Z,44.40
2018-07-22T12:49:37.324Z,45.10
2018-07-22T12:52:05.932Z,46.70
2018-07-22T12:54:34.498Z,46.40
2018-07-22T12:57:03.095Z,44.60
2018-07-22T12:59:31.664Z,41.90
2018-07-22T13:02:00.214Z,43.50
2018-07-22T13:04:28.820Z,42.40
2018-07-22T13:06:57.452Z,45.00
2018-07-22T13:09:25.964Z,44.00
2018-07-22T13:11:54.473Z,44.10
2018-07-22T13:14:23.124Z,45.80
2018-07-22T13:16:51.647Z,45.40
2018-07-22T13:19:20.242Z,45.60
2018-07-22T13:21:48.932Z,47.30
2018-07-22T13:24:17.481Z,47.30
2018-07-22T13:26:46.055Z,46.80
2018-07-22T13:29:14.549Z,47.40
2018-07-22T13:31:43.201Z,47.10
2018-07-22T13:34:11.727Z,45.90
2018-07-22T13:36:40.276Z,47.00
2018-07-22T13:39:10.791Z,44.80
2018-07-22T13:41:40.046Z,43.80
2018-07-22T13:44:08.704Z,43.60
2018-07-22T13:46:37.617Z,42.60
2018-07-22T13:49:06.543Z,44.20
2018-07-22T13:51:35.364Z,43.80
2018-07-22T13:54:04.286Z,44.50
2018-07-22T13:56:32.903Z,43.60
2018-07-22T13:59:01.455Z,44.90
2018-07-22T14:01:30.094Z,46.60
2018-07-22T14:03:58.629Z,47.00
2018-07-22T14:06:27.182Z,46.80
2018-07-22T14:08:55.740Z,47.70
2018-07-22T14:11:24.277Z,48.10
2018-07-22T14:13:52.956Z,46.60
2018-07-22T14:16:21.487Z,48.20
2018-07-22T14:18:50.128Z,46.90
2018-07-22T14:21:18.731Z,48.00
2018-07-22T14:23:47.332Z,45.90
2018-07-22T14:28:44.073Z,46.20
2018-07-22T14:31:12.650Z,47.00
2018-07-22T14:33:41.163Z,48.50
2018-07-22T14:36:09.726Z,47.50
2018-07-22T14:38:38.268Z,47.70
2018-07-22T14:41:06.882Z,53.10
2018-07-22T14:43:35.400Z,53.40
2018-07-22T14:46:04.075Z,50.80
2018-07-22T14:48:32.659Z,49.30
2018-07-22T14:51:01.232Z,49.10
2018-07-22T14:53:29.931Z,48.10
2018-07-22T14:55:58.529Z,47.90
2018-07-22T14:58:27.115Z,47.40
2018-07-22T15:00:55.670Z,45.00
2018-07-22T15:03:24.176Z,43.30
2018-07-22T15:05:52.739Z,41.80
2018-07-22T15:08:21.351Z,41.80
2018-07-22T15:10:49.948Z,43.50
2018-07-22T15:13:18.544Z,44.40
2018-07-22T15:15:47.140Z,44.30
2018-07-22T15:18:15.687Z,46.00
2018-07-22T15:20:44.274Z,48.00
2018-07-22T15:23:12.853Z,49.60
2018-07-22T15:25:41.416Z,48.70
2018-07-22T15:28:10.064Z,48.50
2018-07-22T15:30:38.623Z,48.90
2018-07-22T15:33:07.115Z,50.00
2018-07-22T15:35:35.688Z,50.70
2018-07-22T15:38:04.296Z,51.20
2018-07-22T15:40:32.823Z,52.00
2018-07-22T15:43:01.357Z,51.00
2018-07-22T15:45:29.946Z,51.80
2018-07-22T15:47:58.496Z,50.60
2018-07-22T15:50:27.033Z,51.50
2018-07-22T15:52:55.684Z,50.80
2018-07-22T15:55:24.465Z,50.60
2018-07-22T15:57:52.844Z,50.90
2018-07-22T16:00:21.428Z,50.50
2018-07-22T16:02:50.016Z,49.40
2018-07-22T16:05:18.648Z,49.40
2018-07-22T16:07:47.778Z,47.50
2018-07-22T16:10:16.308Z,46.10
2018-07-22T16:12:44.880Z,43.60
2018-07-22T16:15:13.444Z,42.60
2018-07-22T16:17:42.013Z,40.40
2018-07-22T16:20:10.565Z,39.30
2018-07-22T16:22:39.495Z,40.20
2018-07-22T16:25:08.036Z,37.40
2018-07-22T16:30:05.792Z,38.50
2018-07-22T16:32:34.327Z,39.90
2018-07-22T16:35:02.888Z,41.50
2018-07-22T16:37:31.467Z,42.90
2018-07-22T16:39:59.975Z,45.30
2018-07-22T16:42:28.556Z,49.70
2018-07-22T16:44:57.156Z,52.70
2018-07-22T16:47:25.808Z,55.10
2018-07-22T16:49:54.368Z,66.50
2018-07-22T16:52:22.957Z,70.80
2018-07-22T16:54:51.581Z,73.50
2018-07-22T16:57:20.205Z,75.20
2018-07-22T16:59:48.902Z,78.20
2018-07-22T17:02:17.528Z,80.50
2018-07-22T17:04:46.051Z,83.00
2018-07-22T17:07:15.395Z,85.80
2018-07-22T17:09:43.889Z,86.30
2018-07-22T17:12:12.517Z,88.30
2018-07-22T17:14:41.108Z,87.50
2018-07-22T17:17:09.740Z,89.00
2018-07-22T17:19:38.428Z,89.40
2018-07-22T17:22:07.064Z,93.50
2018-07-22T17:24:35.675Z,91.70
2018-07-22T17:27:04.429Z,92.80
2018-07-22T17:29:32.999Z,91.70
2018-07-22T17:32:01.628Z,93.60
2018-07-22T17:34:30.222Z,90.90
2018-07-22T17:36:58.852Z,90.80
2018-07-22T17:39:27.414Z,89.20
2018-07-22T17:41:56.040Z,88.50
2018-07-22T17:44:24.627Z,86.90
2018-07-22T17:46:53.652Z,87.90
2018-07-22T17:49:22.292Z,92.00
2018-07-22T17:51:51.197Z,93.80
2018-07-22T17:54:19.817Z,94.60
2018-07-22T17:56:48.676Z,95.00
2018-07-22T17:59:17.327Z,95.90
2018-07-22T18:01:45.891Z,93.80
2018-07-22T18:04:21.127Z,93.10
2018-07-22T18:06:49.744Z,94.10
2018-07-22T18:09:18.399Z,93.80
2018-07-22T18:11:47.316Z,92.80
2018-07-22T18:14:16.160Z,92.50
2018-07-22T18:16:44.749Z,93.40
2018-07-22T18:19:13.348Z,91.90
2018-07-22T18:21:42.045Z,92.10
2018-07-22T18:24:10.972Z,91.50
2018-07-22T18:26:40.228Z,90.60
2018-07-22T18:29:08.816Z,92.10
2018-07-22T18:31:37.619Z,93.60
2018-07-22T18:34:06.256Z,93.40
2018-07-22T18:36:34.984Z,91.60
2018-07-22T18:39:05.011Z,91.30
2018-07-22T18:41:33.655Z,92.20
2018-07-22T18:44:02.487Z,91.30
2018-07-22T18:46:31.295Z,90.50
2018-07-22T18:49:00.154Z,91.90
2018-07-22T18:51:28.796Z,91.90
2018-07-22T18:53:57.601Z,92.00
2018-07-22T18:56:26.477Z,92.40
2018-07-22T19:01:24.076Z,92.00
2018-07-22T19:03:52.953Z,91.40
2018-07-22T19:06:21.762Z,90.90
2018-07-22T19:08:50.662Z,92.00
2018-07-22T19:11:19.528Z,91.80
2018-07-22T19:13:48.363Z,91.20
2018-07-22T19:16:17.416Z,90.30
2018-07-22T19:18:46.257Z,91.50
2018-07-22T19:21:15.107Z,92.30
2018-07-22T19:23:44.012Z,92.20
2018-07-22T19:26:12.913Z,90.20
2018-07-22T19:28:41.734Z,91.60
2018-07-22T19:31:10.585Z,91.30
2018-07-22T19:33:39.394Z,91.00
2018-07-22T19:36:08.228Z,90.80
2018-07-22T19:38:37.084Z,90.00
2018-07-22T19:41:06.787Z,90.30
2018-07-22T19:43:35.720Z,91.00
2018-07-22T19:46:04.533Z,92.20
2018-07-22T19:48:33.346Z,90.30
2018-07-22T19:51:02.199Z,90.10
2018-07-22T19:53:31.156Z,90.40
2018-07-22T19:56:00.033Z,90.10
2018-07-22T19:58:28.863Z,89.00
2018-07-22T20:00:57.730Z,89.50
2018-07-22T20:03:26.628Z,89.70
2018-07-22T20:05:55.515Z,90.40
2018-07-22T20:08:24.392Z,90.60
2018-07-22T20:10:53.245Z,90.30
2018-07-22T20:13:22.138Z,90.50
2018-07-22T20:18:44.750Z,90.60
2018-07-22T20:21:13.673Z,91.70
2018-07-22T20:23:42.676Z,92.00
2018-07-22T20:26:11.728Z,92.50
2018-07-22T20:28:40.393Z,91.40
2018-07-22T20:31:09.219Z,91.90
2018-07-22T20:33:37.874Z,93.50
2018-07-22T20:36:06.599Z,93.40
2018-07-22T20:38:35.416Z,92.40
2018-07-22T20:41:04.599Z,91.30
2018-07-22T20:43:33.245Z,92.80
2018-07-22T20:46:01.852Z,93.10
2018-07-22T20:48:30.442Z,92.00
2018-07-22T20:53:27.415Z,92.20
2018-07-22T20:55:55.996Z,92.20
2018-07-22T21:00:52.920Z,91.90
2018-07-22T21:03:21.674Z,91.50
2018-07-22T21:05:50.250Z,91.20
2018-07-22T21:08:18.830Z,91.50
2018-07-22T21:10:47.400Z,91.00
2018-07-22T21:13:20.935Z,92.20
2018-07-22T21:15:49.720Z,92.40
2018-07-22T21:18:18.269Z,92.70
2018-07-22T21:20:46.820Z,93.10
2018-07-22T21:23:15.939Z,93.50
2018-07-22T21:25:44.501Z,93.00
2018-07-22T21:28:13.037Z,92.50
2018-07-22T21:30:42.025Z,93.10
2018-07-22T21:33:10.625Z,93.80
2018-07-22T21:35:39.180Z,93.30
2018-07-22T21:38:07.716Z,93.40
2018-07-22T21:40:36.281Z,93.00
2018-07-22T21:43:04.831Z,92.70
2018-07-22T21:45:33.440Z,92.40
2018-07-22T21:48:01.983Z,92.40
2018-07-22T21:50:30.567Z,92.10
2018-07-22T21:52:59.133Z,92.10
2018-07-22T21:55:27.673Z,92.60
2018-07-22T21:57:56.200Z,92.10
2018-07-22T22:00:57.366Z,92.60
2018-07-22T22:03:25.864Z,92.70
2018-07-22T22:05:54.452Z,92.90
2018-07-22T22:08:22.979Z,93.20
2018-07-22T22:10:51.540Z,92.70
2018-07-22T22:13:20.118Z,92.80
2018-07-22T22:15:48.755Z,92.60
2018-07-22T22:18:17.340Z,92.70
2018-07-22T22:20:45.881Z,93.30
2018-07-22T22:23:14.436Z,93.30
2018-07-22T22:25:43.005Z,93.30
2018-07-22T22:28:11.616Z,93.10
2018-07-22T22:30:40.174Z,93.10
2018-07-22T22:33:08.693Z,93.00
2018-07-22T22:35:37.234Z,92.80
2018-07-22T22:38:05.800Z,93.20
2018-07-22T22:40:35.531Z,93.20
2018-07-22T22:43:04.102Z,93.50
2018-07-22T22:45:32.648Z,92.50
2018-07-22T22:48:01.202Z,91.80
2018-07-22T22:50:30.184Z,91.90
2018-07-22T22:52:58.704Z,92.50
2018-07-22T22:55:27.332Z,92.40
2018-07-22T22:58:07.062Z,92.80
2018-07-22T23:00:35.634Z,93.10
2018-07-22T23:03:04.224Z,93.50
2018-07-22T23:05:32.793Z,93.40
2018-07-22T23:08:01.336Z,92.80
2018-07-22T23:10:29.841Z,93.20
2018-07-22T23:12:58.419Z,92.60
2018-07-22T23:15:27.425Z,92.20
2018-07-22T23:17:55.958Z,92.20
2018-07-22T23:22:52.656Z,91.30
2018-07-22T23:25:21.164Z,91.40
2018-07-22T23:27:49.692Z,90.60
2018-07-22T23:30:18.236Z,91.80
2018-07-22T23:32:46.744Z,91.80
2018-07-22T23:35:15.378Z,92.00
2018-07-22T23:37:43.932Z,92.20
2018-07-22T23:40:12.407Z,91.60
2018-07-22T23:42:40.976Z,91.10
2018-07-22T23:45:09.483Z,91.10
2018-07-22T23:47:38.000Z,90.80
2018-07-22T23:50:06.644Z,91.00
2018-07-22T23:52:35.235Z,91.20
2018-07-22T23:55:03.800Z,91.50
2018-07-22T23:57:32.319Z,91.60
